sensor_id;sensor_type;location;lat;lon;timestamp;pressure;altitude;pressure_sealevel;temperature;humidity
79690;BME280;69156;55.932;-3.238;2024-01-06T00:00:14;100464.86;;;4.19;100.00
79690;BME280;69156;55.932;-3.238;2024-01-06T00:02:40;100466.19;;;4.18;100.00
79690;BME280;69156;55.932;-3.238;2024-01-06T00:05:06;100471.88;;;3.99;100.00
79690;BME280;69156;55.932;-3.238;2024-01-06T00:07:31;100470.99;;;4.11;100.00
79690;BME280;69156;55.932;-3.238;2024-01-06T00:09:56;100472.04;;;4.04;100.00
79690;BME280;69156;55.932;-3.238;2024-01-06T00:12:21;100472.77;;;4.22;100.00
79690;BME280;69156;55.932;-3.238;2024-01-06T00:14:48;100474.31;;;4.08;100.00
79690;BME280;69156;55.932;-3.238;2024-01-06T00:17:15;100480.02;;;4.17;100.00
79690;BME280;69156;55.932;-3.238;2024-01-06T00:19:39;100482.60;;;4.05;100.00
79690;BME280;69156;55.932;-3.238;2024-01-06T00:22:05;100485.70;;;4.05;100.00
79690;BME280;69156;55.932;-3.238;2024-01-06T00:24:31;100485.45;;;4.14;100.00
79690;BME280;69156;55.932;-3.238;2024-01-06T00:26:56;100488.49;;;4.07;100.00
79690;BME280;69156;55.932;-3.238;2024-01-06T00:29:21;100495.88;;;3.97;100.00
79690;BME280;69156;55.932;-3.238;2024-01-06T00:31:47;100494.93;;;4.01;100.00
79690;BME280;69156;55.932;-3.238;2024-01-06T00:34:13;100498.80;;;4.25;100.00
79690;BME280;69156;55.932;-3.238;2024-01-06T00:36:39;100496.44;;;4.19;100.00
79690;BME280;69156;55.932;-3.238;2024-01-06T00:39:04;100499.75;;;4.27;100.00
79690;BME280;69156;55.932;-3.238;2024-01-06T00:41:29;100500.98;;;4.19;100.00
79690;BME280;69156;55.932;-3.238;2024-01-06T00:43:54;100503.21;;;4.13;100.00
79690;BME280;69156;55.932;-3.238;2024-01-06T00:46:19;100507.19;;;4.03;100.00
79690;BME280;69156;55.932;-3.238;2024-01-06T00:48:44;100508.16;;;4.16;100.00
79690;BME280;69156;55.932;-3.238;2024-01-06T00:51:10;100509.82;;;4.09;100.00
79690;BME280;69156;55.932;-3.238;2024-01-06T00:53:35;100514.08;;;4.16;100.00
79690;BME280;69156;55.932;-3.238;2024-01-06T00:56:01;100520.87;;;4.17;100.00
79690;BME280;69156;55.932;-3.238;2024-01-06T00:58:26;100527.15;;;4.08;100.00
79690;BME280;69156;55.932;-3.238;2024-01-06T01:00:52;100530.30;;;3.89;100.00
79690;BME280;69156;55.932;-3.238;2024-01-06T01:03:17;100529.87;;;4.02;100.00
79690;BME280;69156;55.932;-3.238;2024-01-06T01:05:43;100532.23;;;4.02;100.00
79690;BME280;69156;55.932;-3.238;2024-01-06T01:08:08;100537.16;;;3.94;100.00
79690;BME280;69156;55.932;-3.238;2024-01-06T01:10:33;100543.35;;;4.07;100.00
79690;BME280;69156;55.932;-3.238;2024-01-06T01:12:59;100544.02;;;4.12;100.00
79690;BME280;69156;55.932;-3.238;2024-01-06T01:15:24;100544.20;;;4.12;100.00
79690;BME280;69156;55.932;-3.238;2024-01-06T01:17:50;100546.33;;;3.93;100.00
79690;BME280;69156;55.932;-3.238;2024-01-06T01:20:16;100547.59;;;4.03;100.00
79690;BME280;69156;55.932;-3.238;2024-01-06T01:22:41;100546.17;;;4.11;100.00
79690;BME280;69156;55.932;-3.238;2024-01-06T01:25:06;100547.52;;;3.98;100.00
79690;BME280;69156;55.932;-3.238;2024-01-06T01:27:31;100549.65;;;4.05;100.00
79690;BME280;69156;55.932;-3.238;2024-01-06T01:29:56;100554.08;;;3.93;100.00
79690;BME280;69156;55.932;-3.238;2024-01-06T01:32:22;100554.59;;;3.85;100.00
79690;BME280;69156;55.932;-3.238;2024-01-06T01:34:47;100558.05;;;3.97;100.00
79690;BME280;69156;55.932;-3.238;2024-01-06T01:37:12;100561.07;;;3.96;100.00
79690;BME280;69156;55.932;-3.238;2024-01-06T01:39:38;100564.26;;;3.98;100.00
79690;BME280;69156;55.932;-3.238;2024-01-06T01:42:03;100567.93;;;3.96;100.00
79690;BME280;69156;55.932;-3.238;2024-01-06T01:44:29;100571.89;;;4.05;100.00
79690;BME280;69156;55.932;-3.238;2024-01-06T01:46:54;100573.28;;;4.01;100.00
79690;BME280;69156;55.932;-3.238;2024-01-06T01:49:20;100574.55;;;4.16;100.00
79690;BME280;69156;55.932;-3.238;2024-01-06T01:51:45;100575.87;;;3.99;100.00
79690;BME280;69156;55.932;-3.238;2024-01-06T01:54:10;100576.07;;;4.13;100.00
79690;BME280;69156;55.932;-3.238;2024-01-06T01:56:36;100577.90;;;4.12;100.00
79690;BME280;69156;55.932;-3.238;2024-01-06T01:59:05;100578.97;;;4.17;100.00
79690;BME280;69156;55.932;-3.238;2024-01-06T02:01:27;100583.24;;;3.98;100.00
79690;BME280;69156;55.932;-3.238;2024-01-06T02:03:53;100585.61;;;4.11;100.00
79690;BME280;69156;55.932;-3.238;2024-01-06T02:06:18;100590.31;;;4.09;100.00
79690;BME280;69156;55.932;-3.238;2024-01-06T02:08:44;100594.73;;;4.06;100.00
79690;BME280;69156;55.932;-3.238;2024-01-06T02:11:09;100597.51;;;4.10;100.00
79690;BME280;69156;55.932;-3.238;2024-01-06T02:13:35;100600.66;;;4.10;100.00
79690;BME280;69156;55.932;-3.238;2024-01-06T02:15:59;100602.72;;;4.09;100.00
79690;BME280;69156;55.932;-3.238;2024-01-06T02:18:25;100604.02;;;4.20;100.00
79690;BME280;69156;55.932;-3.238;2024-01-06T02:20:53;100608.69;;;4.10;100.00
79690;BME280;69156;55.932;-3.238;2024-01-06T02:23:16;100609.95;;;4.09;100.00
79690;BME280;69156;55.932;-3.238;2024-01-06T02:25:42;100612.34;;;4.00;100.00
79690;BME280;69156;55.932;-3.238;2024-01-06T02:28:07;100614.94;;;4.06;100.00
79690;BME280;69156;55.932;-3.238;2024-01-06T02:30:32;100619.63;;;4.07;100.00
79690;BME280;69156;55.932;-3.238;2024-01-06T02:32:57;100621.86;;;4.11;100.00
79690;BME280;69156;55.932;-3.238;2024-01-06T02:35:23;100621.65;;;4.11;100.00
79690;BME280;69156;55.932;-3.238;2024-01-06T02:37:49;100626.53;;;4.05;100.00
79690;BME280;69156;55.932;-3.238;2024-01-06T02:40:15;100625.58;;;4.01;100.00
79690;BME280;69156;55.932;-3.238;2024-01-06T02:42:41;100627.88;;;4.05;100.00
79690;BME280;69156;55.932;-3.238;2024-01-06T02:45:08;100629.71;;;4.03;100.00
79690;BME280;69156;55.932;-3.238;2024-01-06T02:47:31;100633.71;;;4.01;100.00
79690;BME280;69156;55.932;-3.238;2024-01-06T02:49:57;100635.93;;;4.14;100.00
79690;BME280;69156;55.932;-3.238;2024-01-06T02:52:22;100635.96;;;4.21;100.00
79690;BME280;69156;55.932;-3.238;2024-01-06T02:54:47;100641.09;;;3.99;100.00
79690;BME280;69156;55.932;-3.238;2024-01-06T02:57:12;100643.45;;;4.17;100.00
79690;BME280;69156;55.932;-3.238;2024-01-06T02:59:38;100643.94;;;4.23;100.00
79690;BME280;69156;55.932;-3.238;2024-01-06T03:02:04;100644.97;;;4.18;100.00
79690;BME280;69156;55.932;-3.238;2024-01-06T03:04:30;100643.87;;;4.08;100.00
79690;BME280;69156;55.932;-3.238;2024-01-06T03:06:57;100645.41;;;4.21;100.00
79690;BME280;69156;55.932;-3.238;2024-01-06T03:09:22;100644.03;;;4.14;100.00
79690;BME280;69156;55.932;-3.238;2024-01-06T03:11:48;100649.63;;;4.36;100.00
79690;BME280;69156;55.932;-3.238;2024-01-06T03:14:13;100651.09;;;4.44;100.00
79690;BME280;69156;55.932;-3.238;2024-01-06T03:16:39;100653.10;;;4.40;100.00
79690;BME280;69156;55.932;-3.238;2024-01-06T03:19:05;100657.91;;;4.38;100.00
79690;BME280;69156;55.932;-3.238;2024-01-06T03:21:30;100661.23;;;4.53;100.00
79690;BME280;69156;55.932;-3.238;2024-01-06T03:23:55;100663.80;;;4.40;100.00
79690;BME280;69156;55.932;-3.238;2024-01-06T03:26:21;100664.72;;;4.31;100.00
79690;BME280;69156;55.932;-3.238;2024-01-06T03:28:49;100668.34;;;4.35;100.00
79690;BME280;69156;55.932;-3.238;2024-01-06T03:31:12;100670.24;;;4.20;100.00
79690;BME280;69156;55.932;-3.238;2024-01-06T03:33:37;100670.85;;;4.30;100.00
79690;BME280;69156;55.932;-3.238;2024-01-06T03:36:05;100673.84;;;4.36;100.00
79690;BME280;69156;55.932;-3.238;2024-01-06T03:38:28;100676.70;;;4.22;100.00
79690;BME280;69156;55.932;-3.238;2024-01-06T03:40:53;100676.34;;;4.38;100.00
79690;BME280;69156;55.932;-3.238;2024-01-06T03:43:18;100678.14;;;4.35;100.00
79690;BME280;69156;55.932;-3.238;2024-01-06T03:45:44;100679.26;;;4.27;100.00
79690;BME280;69156;55.932;-3.238;2024-01-06T03:48:09;100682.20;;;4.24;100.00
79690;BME280;69156;55.932;-3.238;2024-01-06T03:50:35;100687.38;;;4.24;100.00
79690;BME280;69156;55.932;-3.238;2024-01-06T03:53:00;100690.29;;;4.31;100.00
79690;BME280;69156;55.932;-3.238;2024-01-06T03:55:26;100690.87;;;4.33;100.00
79690;BME280;69156;55.932;-3.238;2024-01-06T03:57:52;100697.78;;;4.20;100.00
79690;BME280;69156;55.932;-3.238;2024-01-06T04:00:17;100697.86;;;4.36;100.00
79690;BME280;69156;55.932;-3.238;2024-01-06T04:02:43;100703.87;;;4.34;100.00
79690;BME280;69156;55.932;-3.238;2024-01-06T04:05:08;100708.23;;;4.31;100.00
79690;BME280;69156;55.932;-3.238;2024-01-06T04:07:34;100710.78;;;4.41;100.00
79690;BME280;69156;55.932;-3.238;2024-01-06T04:09:59;100713.78;;;4.40;100.00
79690;BME280;69156;55.932;-3.238;2024-01-06T04:12:25;100717.98;;;4.36;100.00
79690;BME280;69156;55.932;-3.238;2024-01-06T04:14:50;100718.20;;;4.31;100.00
79690;BME280;69156;55.932;-3.238;2024-01-06T04:17:16;100719.65;;;4.42;100.00
79690;BME280;69156;55.932;-3.238;2024-01-06T04:19:41;100723.24;;;4.38;100.00
79690;BME280;69156;55.932;-3.238;2024-01-06T04:22:06;100723.32;;;4.40;100.00
79690;BME280;69156;55.932;-3.238;2024-01-06T04:24:32;100725.94;;;4.32;100.00
79690;BME280;69156;55.932;-3.238;2024-01-06T04:26:57;100726.57;;;4.40;100.00
79690;BME280;69156;55.932;-3.238;2024-01-06T04:29:23;100729.05;;;4.45;100.00
79690;BME280;69156;55.932;-3.238;2024-01-06T04:31:48;100729.02;;;4.47;100.00
79690;BME280;69156;55.932;-3.238;2024-01-06T04:34:13;100733.08;;;4.41;100.00
79690;BME280;69156;55.932;-3.238;2024-01-06T04:36:38;100736.01;;;4.49;100.00
79690;BME280;69156;55.932;-3.238;2024-01-06T04:39:04;100741.22;;;4.37;100.00
79690;BME280;69156;55.932;-3.238;2024-01-06T04:41:29;100745.95;;;4.39;100.00
79690;BME280;69156;55.932;-3.238;2024-01-06T04:43:54;100750.12;;;4.36;100.00
79690;BME280;69156;55.932;-3.238;2024-01-06T04:46:20;100751.20;;;4.38;100.00
79690;BME280;69156;55.932;-3.238;2024-01-06T04:48:45;100753.02;;;4.46;100.00
79690;BME280;69156;55.932;-3.238;2024-01-06T04:51:10;100757.39;;;4.37;100.00
79690;BME280;69156;55.932;-3.238;2024-01-06T04:53:35;100758.94;;;4.48;100.00
79690;BME280;69156;55.932;-3.238;2024-01-06T04:56:01;100757.49;;;4.28;100.00
79690;BME280;69156;55.932;-3.238;2024-01-06T04:58:26;100759.90;;;4.50;100.00
79690;BME280;69156;55.932;-3.238;2024-01-06T05:00:51;100760.76;;;4.40;100.00
79690;BME280;69156;55.932;-3.238;2024-01-06T05:03:17;100764.37;;;4.47;100.00
79690;BME280;69156;55.932;-3.238;2024-01-06T05:05:42;100762.99;;;4.50;100.00
79690;BME280;69156;55.932;-3.238;2024-01-06T05:08:07;100764.87;;;4.47;100.00
79690;BME280;69156;55.932;-3.238;2024-01-06T05:10:33;100767.75;;;4.42;100.00
79690;BME280;69156;55.932;-3.238;2024-01-06T05:12:58;100767.74;;;4.45;100.00
79690;BME280;69156;55.932;-3.238;2024-01-06T05:15:24;100769.07;;;4.57;100.00
79690;BME280;69156;55.932;-3.238;2024-01-06T05:17:49;100774.18;;;4.53;100.00
79690;BME280;69156;55.932;-3.238;2024-01-06T05:20:14;100775.29;;;4.47;100.00
79690;BME280;69156;55.932;-3.238;2024-01-06T05:22:39;100776.55;;;4.44;100.00
79690;BME280;69156;55.932;-3.238;2024-01-06T05:25:05;100776.47;;;4.51;100.00
79690;BME280;69156;55.932;-3.238;2024-01-06T05:27:31;100783.32;;;4.53;100.00
79690;BME280;69156;55.932;-3.238;2024-01-06T05:29:56;100791.26;;;4.30;100.00
79690;BME280;69156;55.932;-3.238;2024-01-06T05:32:23;100793.40;;;4.32;100.00
79690;BME280;69156;55.932;-3.238;2024-01-06T05:34:49;100792.76;;;4.40;100.00
79690;BME280;69156;55.932;-3.238;2024-01-06T05:37:13;100798.14;;;4.25;100.00
79690;BME280;69156;55.932;-3.238;2024-01-06T05:39:39;100800.39;;;4.27;100.00
79690;BME280;69156;55.932;-3.238;2024-01-06T05:42:04;100803.05;;;4.32;100.00
79690;BME280;69156;55.932;-3.238;2024-01-06T05:44:29;100809.67;;;4.40;100.00
79690;BME280;69156;55.932;-3.238;2024-01-06T05:46:55;100815.39;;;4.46;100.00
79690;BME280;69156;55.932;-3.238;2024-01-06T05:49:20;100820.33;;;4.22;100.00
79690;BME280;69156;55.932;-3.238;2024-01-06T05:51:45;100830.57;;;4.18;100.00
79690;BME280;69156;55.932;-3.238;2024-01-06T05:54:10;100831.25;;;4.21;100.00
79690;BME280;69156;55.932;-3.238;2024-01-06T05:56:36;100831.85;;;4.02;100.00
79690;BME280;69156;55.932;-3.238;2024-01-06T05:59:01;100835.13;;;4.15;100.00
79690;BME280;69156;55.932;-3.238;2024-01-06T06:01:28;100840.08;;;4.07;100.00
79690;BME280;69156;55.932;-3.238;2024-01-06T06:03:53;100843.16;;;4.06;100.00
79690;BME280;69156;55.932;-3.238;2024-01-06T06:06:18;100847.43;;;4.14;100.00
79690;BME280;69156;55.932;-3.238;2024-01-06T06:08:44;100850.18;;;4.18;100.00
79690;BME280;69156;55.932;-3.238;2024-01-06T06:11:09;100852.38;;;4.16;100.00
79690;BME280;69156;55.932;-3.238;2024-01-06T06:13:35;100854.63;;;4.15;100.00
79690;BME280;69156;55.932;-3.238;2024-01-06T06:16:01;100855.78;;;4.22;100.00
79690;BME280;69156;55.932;-3.238;2024-01-06T06:18:27;100858.06;;;4.18;100.00
79690;BME280;69156;55.932;-3.238;2024-01-06T06:20:52;100859.81;;;4.24;100.00
79690;BME280;69156;55.932;-3.238;2024-01-06T06:23:17;100864.76;;;4.20;100.00
79690;BME280;69156;55.932;-3.238;2024-01-06T06:25:43;100867.89;;;4.23;100.00
79690;BME280;69156;55.932;-3.238;2024-01-06T06:28:09;100870.15;;;4.29;100.00
79690;BME280;69156;55.932;-3.238;2024-01-06T06:30:35;100878.15;;;4.22;100.00
79690;BME280;69156;55.932;-3.238;2024-01-06T06:33:00;100883.43;;;4.15;100.00
79690;BME280;69156;55.932;-3.238;2024-01-06T06:35:26;100889.43;;;4.20;100.00
79690;BME280;69156;55.932;-3.238;2024-01-06T06:37:52;100893.67;;;4.06;100.00
79690;BME280;69156;55.932;-3.238;2024-01-06T06:40:17;100897.62;;;4.18;100.00
79690;BME280;69156;55.932;-3.238;2024-01-06T06:42:43;100901.01;;;4.03;100.00
79690;BME280;69156;55.932;-3.238;2024-01-06T06:45:09;100905.49;;;4.17;100.00
79690;BME280;69156;55.932;-3.238;2024-01-06T06:47:34;100907.88;;;4.03;100.00
79690;BME280;69156;55.932;-3.238;2024-01-06T06:49:59;100913.86;;;4.05;100.00
79690;BME280;69156;55.932;-3.238;2024-01-06T06:52:24;100918.03;;;4.06;100.00
79690;BME280;69156;55.932;-3.238;2024-01-06T06:54:50;100924.69;;;4.05;100.00
79690;BME280;69156;55.932;-3.238;2024-01-06T06:57:15;100928.15;;;3.94;100.00
79690;BME280;69156;55.932;-3.238;2024-01-06T06:59:40;100931.54;;;4.08;100.00
79690;BME280;69156;55.932;-3.238;2024-01-06T07:02:06;100934.68;;;4.06;100.00
79690;BME280;69156;55.932;-3.238;2024-01-06T07:04:31;100944.04;;;3.97;100.00
79690;BME280;69156;55.932;-3.238;2024-01-06T07:06:56;100944.63;;;3.98;100.00
79690;BME280;69156;55.932;-3.238;2024-01-06T07:09:22;100948.32;;;3.87;100.00
79690;BME280;69156;55.932;-3.238;2024-01-06T07:11:48;100956.30;;;3.86;100.00
79690;BME280;69156;55.932;-3.238;2024-01-06T07:14:14;100964.29;;;3.97;100.00
79690;BME280;69156;55.932;-3.238;2024-01-06T07:16:40;100961.68;;;3.81;100.00
79690;BME280;69156;55.932;-3.238;2024-01-06T07:19:05;100963.42;;;3.83;100.00
79690;BME280;69156;55.932;-3.238;2024-01-06T07:21:31;100969.04;;;3.76;100.00
79690;BME280;69156;55.932;-3.238;2024-01-06T07:23:56;100972.97;;;3.75;100.00
79690;BME280;69156;55.932;-3.238;2024-01-06T07:26:22;100977.54;;;3.69;100.00
79690;BME280;69156;55.932;-3.238;2024-01-06T07:28:47;100980.29;;;3.88;100.00
79690;BME280;69156;55.932;-3.238;2024-01-06T07:31:14;100983.56;;;3.79;100.00
79690;BME280;69156;55.932;-3.238;2024-01-06T07:33:39;100987.76;;;3.71;100.00
79690;BME280;69156;55.932;-3.238;2024-01-06T07:36:05;100992.89;;;3.72;100.00
79690;BME280;69156;55.932;-3.238;2024-01-06T07:38:30;100998.09;;;3.77;100.00
79690;BME280;69156;55.932;-3.238;2024-01-06T07:40:55;101005.77;;;3.78;100.00
79690;BME280;69156;55.932;-3.238;2024-01-06T07:43:21;101011.04;;;3.72;100.00
79690;BME280;69156;55.932;-3.238;2024-01-06T07:45:47;101015.96;;;3.71;100.00
79690;BME280;69156;55.932;-3.238;2024-01-06T07:48:12;101021.07;;;3.55;100.00
79690;BME280;69156;55.932;-3.238;2024-01-06T07:50:37;101025.13;;;3.70;100.00
79690;BME280;69156;55.932;-3.238;2024-01-06T07:53:03;101030.91;;;3.69;100.00
79690;BME280;69156;55.932;-3.238;2024-01-06T07:55:28;101036.51;;;3.71;100.00
79690;BME280;69156;55.932;-3.238;2024-01-06T07:57:54;101038.83;;;3.67;100.00
79690;BME280;69156;55.932;-3.238;2024-01-06T08:00:19;101042.86;;;3.75;100.00
79690;BME280;69156;55.932;-3.238;2024-01-06T08:02:44;101050.01;;;3.71;100.00
79690;BME280;69156;55.932;-3.238;2024-01-06T08:05:09;101053.51;;;3.80;100.00
79690;BME280;69156;55.932;-3.238;2024-01-06T08:07:36;101053.92;;;3.68;100.00
79690;BME280;69156;55.932;-3.238;2024-01-06T08:10:00;101057.87;;;3.72;100.00
79690;BME280;69156;55.932;-3.238;2024-01-06T08:12:26;101060.75;;;3.74;100.00
79690;BME280;69156;55.932;-3.238;2024-01-06T08:14:51;101067.86;;;3.69;100.00
79690;BME280;69156;55.932;-3.238;2024-01-06T08:17:17;101069.13;;;3.76;100.00
79690;BME280;69156;55.932;-3.238;2024-01-06T08:19:42;101075.67;;;3.69;100.00
79690;BME280;69156;55.932;-3.238;2024-01-06T08:22:08;101079.35;;;3.65;100.00
79690;BME280;69156;55.932;-3.238;2024-01-06T08:24:34;101084.12;;;3.60;100.00
79690;BME280;69156;55.932;-3.238;2024-01-06T08:27:00;101091.27;;;3.49;100.00
79690;BME280;69156;55.932;-3.238;2024-01-06T08:29:25;101094.66;;;3.57;100.00
79690;BME280;69156;55.932;-3.238;2024-01-06T08:31:51;101094.50;;;3.46;100.00
79690;BME280;69156;55.932;-3.238;2024-01-06T08:34:17;101097.05;;;3.51;100.00
79690;BME280;69156;55.932;-3.238;2024-01-06T08:36:42;101100.75;;;3.50;100.00
79690;BME280;69156;55.932;-3.238;2024-01-06T08:39:08;101104.82;;;3.44;100.00
79690;BME280;69156;55.932;-3.238;2024-01-06T08:41:37;101106.93;;;3.63;100.00
79690;BME280;69156;55.932;-3.238;2024-01-06T08:44:02;101110.42;;;3.56;100.00
79690;BME280;69156;55.932;-3.238;2024-01-06T08:46:27;101113.77;;;3.61;100.00
79690;BME280;69156;55.932;-3.238;2024-01-06T08:48:53;101114.03;;;3.52;100.00
79690;BME280;69156;55.932;-3.238;2024-01-06T08:51:18;101116.78;;;3.48;100.00
79690;BME280;69156;55.932;-3.238;2024-01-06T08:53:44;101121.65;;;3.64;100.00
79690;BME280;69156;55.932;-3.238;2024-01-06T08:56:09;101126.89;;;3.64;100.00
79690;BME280;69156;55.932;-3.238;2024-01-06T08:58:34;101130.29;;;3.68;100.00
79690;BME280;69156;55.932;-3.238;2024-01-06T09:01:00;101133.27;;;3.64;100.00
79690;BME280;69156;55.932;-3.238;2024-01-06T09:03:25;101134.50;;;3.48;100.00
79690;BME280;69156;55.932;-3.238;2024-01-06T09:05:50;101136.02;;;3.59;100.00
79690;BME280;69156;55.932;-3.238;2024-01-06T09:08:16;101138.77;;;3.56;100.00
79690;BME280;69156;55.932;-3.238;2024-01-06T09:10:42;101142.69;;;3.53;100.00
79690;BME280;69156;55.932;-3.238;2024-01-06T09:13:08;101145.16;;;3.52;100.00
79690;BME280;69156;55.932;-3.238;2024-01-06T09:15:35;101151.01;;;3.58;100.00
79690;BME280;69156;55.932;-3.238;2024-01-06T09:18:00;101154.56;;;3.56;100.00
79690;BME280;69156;55.932;-3.238;2024-01-06T09:20:26;101157.72;;;3.67;100.00
79690;BME280;69156;55.932;-3.238;2024-01-06T09:22:51;101157.38;;;3.59;100.00
79690;BME280;69156;55.932;-3.238;2024-01-06T09:25:16;101160.65;;;3.61;100.00
79690;BME280;69156;55.932;-3.238;2024-01-06T09:27:42;101163.58;;;3.63;100.00
79690;BME280;69156;55.932;-3.238;2024-01-06T09:30:08;101165.58;;;3.67;100.00
79690;BME280;69156;55.932;-3.238;2024-01-06T09:32:33;101168.63;;;3.77;100.00
79690;BME280;69156;55.932;-3.238;2024-01-06T09:34:59;101173.31;;;3.79;100.00
79690;BME280;69156;55.932;-3.238;2024-01-06T09:37:25;101175.88;;;3.77;100.00
79690;BME280;69156;55.932;-3.238;2024-01-06T09:39:50;101179.38;;;3.76;100.00
79690;BME280;69156;55.932;-3.238;2024-01-06T09:42:16;101182.56;;;3.72;100.00
79690;BME280;69156;55.932;-3.238;2024-01-06T09:44:41;101186.02;;;3.77;100.00
79690;BME280;69156;55.932;-3.238;2024-01-06T09:47:09;101191.09;;;3.77;100.00
79690;BME280;69156;55.932;-3.238;2024-01-06T09:49:34;101191.66;;;3.83;100.00
79690;BME280;69156;55.932;-3.238;2024-01-06T09:51:59;101196.80;;;3.86;100.00
79690;BME280;69156;55.932;-3.238;2024-01-06T09:54:25;101199.82;;;3.84;100.00
79690;BME280;69156;55.932;-3.238;2024-01-06T09:56:50;101205.11;;;3.86;100.00
79690;BME280;69156;55.932;-3.238;2024-01-06T09:59:17;101208.71;;;3.86;100.00
79690;BME280;69156;55.932;-3.238;2024-01-06T10:01:41;101210.15;;;3.81;100.00
79690;BME280;69156;55.932;-3.238;2024-01-06T10:04:06;101216.41;;;3.74;100.00
79690;BME280;69156;55.932;-3.238;2024-01-06T10:06:32;101218.47;;;3.85;100.00
79690;BME280;69156;55.932;-3.238;2024-01-06T10:08:57;101225.50;;;3.76;100.00
79690;BME280;69156;55.932;-3.238;2024-01-06T10:11:23;101230.01;;;3.78;100.00
79690;BME280;69156;55.932;-3.238;2024-01-06T10:13:49;101231.69;;;3.93;100.00
79690;BME280;69156;55.932;-3.238;2024-01-06T10:16:13;101236.90;;;3.97;100.00
79690;BME280;69156;55.932;-3.238;2024-01-06T10:18:39;101239.20;;;3.97;100.00
79690;BME280;69156;55.932;-3.238;2024-01-06T10:21:05;101240.84;;;4.06;100.00
79690;BME280;69156;55.932;-3.238;2024-01-06T10:23:32;101242.85;;;4.05;100.00
79690;BME280;69156;55.932;-3.238;2024-01-06T10:25:56;101247.74;;;4.08;100.00
79690;BME280;69156;55.932;-3.238;2024-01-06T10:28:22;101249.20;;;3.93;100.00
79690;BME280;69156;55.932;-3.238;2024-01-06T10:30:47;101250.39;;;4.13;100.00
79690;BME280;69156;55.932;-3.238;2024-01-06T10:33:13;101254.40;;;4.27;100.00
79690;BME280;69156;55.932;-3.238;2024-01-06T10:35:39;101256.75;;;4.28;100.00
79690;BME280;69156;55.932;-3.238;2024-01-06T10:38:04;101261.49;;;4.28;100.00
79690;BME280;69156;55.932;-3.238;2024-01-06T10:40:30;101266.96;;;4.17;100.00
79690;BME280;69156;55.932;-3.238;2024-01-06T10:42:56;101268.28;;;4.24;100.00
79690;BME280;69156;55.932;-3.238;2024-01-06T10:45:21;101269.56;;;4.37;100.00
79690;BME280;69156;55.932;-3.238;2024-01-06T10:47:47;101272.59;;;4.33;100.00
79690;BME280;69156;55.932;-3.238;2024-01-06T10:50:13;101276.17;;;4.43;100.00
79690;BME280;69156;55.932;-3.238;2024-01-06T10:52:38;101278.66;;;4.31;100.00
79690;BME280;69156;55.932;-3.238;2024-01-06T10:55:04;101280.55;;;4.52;100.00
79690;BME280;69156;55.932;-3.238;2024-01-06T10:57:29;101281.76;;;4.49;100.00
79690;BME280;69156;55.932;-3.238;2024-01-06T10:59:54;101286.04;;;4.63;100.00
79690;BME280;69156;55.932;-3.238;2024-01-06T11:02:19;101287.45;;;4.55;100.00
79690;BME280;69156;55.932;-3.238;2024-01-06T11:04:46;101288.18;;;4.52;100.00
79690;BME280;69156;55.932;-3.238;2024-01-06T11:07:10;101286.22;;;4.76;100.00
79690;BME280;69156;55.932;-3.238;2024-01-06T11:09:37;101291.09;;;4.52;100.00
79690;BME280;69156;55.932;-3.238;2024-01-06T11:12:01;101287.37;;;4.67;100.00
79690;BME280;69156;55.932;-3.238;2024-01-06T11:14:27;101289.95;;;4.67;100.00
79690;BME280;69156;55.932;-3.238;2024-01-06T11:16:52;101290.84;;;4.78;100.00
79690;BME280;69156;55.932;-3.238;2024-01-06T11:19:49;101290.40;;;4.77;100.00
79690;BME280;69156;55.932;-3.238;2024-01-06T11:21:43;101290.53;;;4.75;100.00
79690;BME280;69156;55.932;-3.238;2024-01-06T11:24:18;101288.93;;;4.85;100.00
79690;BME280;69156;55.932;-3.238;2024-01-06T11:26:34;101287.58;;;4.82;100.00
79690;BME280;69156;55.932;-3.238;2024-01-06T11:29:00;101291.76;;;4.84;100.00
79690;BME280;69156;55.932;-3.238;2024-01-06T11:31:29;101294.77;;;4.92;100.00
79690;BME280;69156;55.932;-3.238;2024-01-06T11:33:51;101292.72;;;4.79;100.00
79690;BME280;69156;55.932;-3.238;2024-01-06T11:36:16;101295.64;;;5.00;100.00
79690;BME280;69156;55.932;-3.238;2024-01-06T11:38:41;101296.76;;;5.02;100.00
79690;BME280;69156;55.932;-3.238;2024-01-06T11:41:07;101297.46;;;5.04;100.00
79690;BME280;69156;55.932;-3.238;2024-01-06T11:43:34;101300.85;;;5.06;100.00
79690;BME280;69156;55.932;-3.238;2024-01-06T11:45:58;101305.83;;;5.19;100.00
79690;BME280;69156;55.932;-3.238;2024-01-06T11:48:24;101308.89;;;5.18;100.00
79690;BME280;69156;55.932;-3.238;2024-01-06T11:50:49;101309.59;;;5.20;100.00
79690;BME280;69156;55.932;-3.238;2024-01-06T11:53:14;101315.29;;;5.23;100.00
79690;BME280;69156;55.932;-3.238;2024-01-06T11:55:40;101316.43;;;5.22;100.00
79690;BME280;69156;55.932;-3.238;2024-01-06T11:58:05;101315.38;;;5.29;100.00
79690;BME280;69156;55.932;-3.238;2024-01-06T12:00:30;101314.71;;;5.31;100.00
79690;BME280;69156;55.932;-3.238;2024-01-06T12:02:56;101317.02;;;5.36;100.00
79690;BME280;69156;55.932;-3.238;2024-01-06T12:05:21;101314.65;;;5.29;100.00
79690;BME280;69156;55.932;-3.238;2024-01-06T12:07:54;101315.63;;;5.41;100.00
79690;BME280;69156;55.932;-3.238;2024-01-06T12:10:13;101310.84;;;5.41;100.00
79690;BME280;69156;55.932;-3.238;2024-01-06T12:12:38;101311.32;;;5.48;100.00
79690;BME280;69156;55.932;-3.238;2024-01-06T12:15:05;101315.00;;;5.71;100.00
79690;BME280;69156;55.932;-3.238;2024-01-06T12:17:30;101314.97;;;5.79;100.00
79690;BME280;69156;55.932;-3.238;2024-01-06T12:19:55;101313.44;;;5.78;100.00
79690;BME280;69156;55.932;-3.238;2024-01-06T12:22:20;101312.28;;;5.71;100.00
79690;BME280;69156;55.932;-3.238;2024-01-06T12:24:45;101312.20;;;5.90;100.00
79690;BME280;69156;55.932;-3.238;2024-01-06T12:27:11;101308.58;;;5.90;100.00
79690;BME280;69156;55.932;-3.238;2024-01-06T12:29:38;101308.77;;;5.93;100.00